createdAt,value
2022-12-08T00:02:02.601Z,50.30
2022-12-08T00:04:52.497Z,45.03
2022-12-08T00:07:40.874Z,49.38
2022-12-08T00:10:39.563Z,67.45
2022-12-08T00:12:59.106Z,55.47
2022-12-08T00:15:30.721Z,50.70
2022-12-08T00:18:00.482Z,46.47
2022-12-08T00:20:31.884Z,43.75
2022-12-08T00:23:01.250Z,47.25
2022-12-08T00:25:32.542Z,47.90
2022-12-08T00:28:05.170Z,42.20
2022-12-08T00:30:34.562Z,44.47
2022-12-08T00:33:04.462Z,39.53
2022-12-08T00:35:41.544Z,37.67
2022-12-08T00:38:14.151Z,36.13
2022-12-08T00:40:50.214Z,38.70
2022-12-08T00:43:19.105Z,37.58
2022-12-08T00:45:47.186Z,36.45
2022-12-08T00:48:23.466Z,41.45
2022-12-08T00:50:58.491Z,40.08
2022-12-08T00:53:27.850Z,36.83
2022-12-08T00:55:59.558Z,37.53
2022-12-08T00:58:28.369Z,32.28
2022-12-08T01:01:03.817Z,34.53
2022-12-08T01:03:36.382Z,37.45
2022-12-08T01:06:08.958Z,35.15
2022-12-08T01:08:41.356Z,32.75
2022-12-08T01:11:15.468Z,35.80
2022-12-08T01:13:43.591Z,34.85
2022-12-08T01:16:20.113Z,31.75
2022-12-08T01:18:52.200Z,29.38
2022-12-08T01:21:24.709Z,32.78
2022-12-08T01:23:54.556Z,31.65
2022-12-08T01:26:24.837Z,31.65
2022-12-08T01:28:59.706Z,34.47
2022-12-08T01:31:27.256Z,51.80
2022-12-08T01:34:01.143Z,44.97
2022-12-08T01:36:34.104Z,35.58
2022-12-08T01:39:12.484Z,33.65
2022-12-08T01:41:43.101Z,32.33
2022-12-08T01:44:19.528Z,34.75
2022-12-08T01:46:49.989Z,36.17
2022-12-08T01:49:33.026Z,33.97
2022-12-08T01:52:07.622Z,32.80
2022-12-08T01:54:45.647Z,31.95
2022-12-08T01:57:33.350Z,31.58
2022-12-08T02:00:14.380Z,35.97
2022-12-08T02:03:03.363Z,35.15
2022-12-08T02:05:36.996Z,32.00
2022-12-08T02:08:10.167Z,22.55
2022-12-08T02:10:45.108Z,38.40
2022-12-08T02:13:24.779Z,34.60
2022-12-08T02:16:29.947Z,35.53
2022-12-08T02:19:30.670Z,35.73
2022-12-08T02:22:33.046Z,38.65
2022-12-08T02:25:31.362Z,34.88
2022-12-08T02:28:34.534Z,35.95
2022-12-08T02:31:08.548Z,37.63
2022-12-08T02:34:17.745Z,29.23
2022-12-08T02:37:09.091Z,35.70
2022-12-08T02:40:07.025Z,30.42
2022-12-08T02:42:42.922Z,32.65
2022-12-08T02:45:32.702Z,35.80
2022-12-08T02:48:06.638Z,35.42
2022-12-08T02:50:35.510Z,33.58
2022-12-08T02:55:56.696Z,36.38
2022-12-08T02:59:05.027Z,44.92
2022-12-08T03:01:55.776Z,76.80
2022-12-08T03:05:05.599Z,60.30
2022-12-08T03:07:41.340Z,64.20
2022-12-08T03:10:53.518Z,52.00
2022-12-08T03:13:35.575Z,36.80
2022-12-08T03:16:10.747Z,31.23
2022-12-08T03:18:45.485Z,33.63
2022-12-08T03:21:23.309Z,38.95
2022-12-08T03:23:59.270Z,30.85
2022-12-08T03:26:53.270Z,30.42
2022-12-08T03:29:26.007Z,31.13
2022-12-08T03:32:32.505Z,26.77
2022-12-08T03:35:05.566Z,28.48
2022-12-08T03:37:39.469Z,37.13
2022-12-08T03:40:16.554Z,41.25
2022-12-08T03:42:45.313Z,43.40
2022-12-08T03:45:17.024Z,188.43
2022-12-08T03:47:49.511Z,168.00
2022-12-08T03:50:23.067Z,142.32
2022-12-08T03:52:53.082Z,99.80
2022-12-08T03:58:09.471Z,52.22
2022-12-08T04:00:38.055Z,98.43
2022-12-08T04:03:09.761Z,62.83
2022-12-08T04:05:39.867Z,34.95
2022-12-08T04:08:10.747Z,31.20
2022-12-08T04:10:41.941Z,29.05
2022-12-08T04:13:10.480Z,30.80
2022-12-08T04:15:41.842Z,28.58
2022-12-08T04:18:10.332Z,28.65
2022-12-08T04:20:43.481Z,31.08
2022-12-08T04:23:14.962Z,27.70
2022-12-08T04:25:47.539Z,28.45
2022-12-08T04:28:17.874Z,32.95
2022-12-08T04:30:48.307Z,29.65
2022-12-08T04:33:19.756Z,29.95
2022-12-08T04:35:50.621Z,31.13
2022-12-08T04:38:19.447Z,32.33
2022-12-08T04:40:52.679Z,28.23
2022-12-08T04:43:23.740Z,28.90
2022-12-08T04:45:54.483Z,28.27
2022-12-08T04:48:24.495Z,26.88
2022-12-08T04:50:55.602Z,26.70
2022-12-08T04:53:25.625Z,27.35
2022-12-08T04:55:54.944Z,27.25
2022-12-08T04:58:22.374Z,24.10
2022-12-08T05:00:58.512Z,27.92
2022-12-08T05:03:28.825Z,28.67
2022-12-08T05:06:03.395Z,26.58
2022-12-08T05:08:31.880Z,29.55
2022-12-08T05:11:14.310Z,25.60
2022-12-08T05:13:42.372Z,24.77
2022-12-08T05:16:17.678Z,26.30
2022-12-08T05:18:45.050Z,20.95
2022-12-08T05:21:12.554Z,20.35
2022-12-08T05:23:47.480Z,17.05
2022-12-08T05:26:20.066Z,19.70
2022-12-08T05:28:47.185Z,18.15
2022-12-08T05:31:22.910Z,18.17
2022-12-08T05:33:59.571Z,16.38
2022-12-08T05:36:31.175Z,16.80
2022-12-08T05:39:01.924Z,16.67
2022-12-08T05:41:32.618Z,16.98
2022-12-08T05:44:01.721Z,18.35
2022-12-08T05:46:29.229Z,17.48
2022-12-08T05:49:01.098Z,19.38
2022-12-08T05:51:35.224Z,21.60
2022-12-08T05:54:08.853Z,20.67
2022-12-08T05:56:40.015Z,20.48
2022-12-08T05:59:11.517Z,28.92
2022-12-08T06:01:42.648Z,28.50
2022-12-08T06:04:16.469Z,33.20
2022-12-08T06:06:47.974Z,35.15
2022-12-08T06:09:18.631Z,36.17
2022-12-08T06:11:51.275Z,28.63
2022-12-08T06:14:20.674Z,26.17
2022-12-08T06:16:51.145Z,27.20
2022-12-08T06:19:24.080Z,27.65
2022-12-08T06:21:55.630Z,25.52
2022-12-08T06:24:32.171Z,26.38
2022-12-08T06:27:02.879Z,26.30
2022-12-08T06:29:37.754Z,26.17
2022-12-08T06:32:09.597Z,27.38
2022-12-08T06:34:39.265Z,26.73
2022-12-08T06:37:08.663Z,28.92
2022-12-08T06:39:41.414Z,33.83
2022-12-08T06:42:27.741Z,34.47
2022-12-08T06:44:54.870Z,40.97
2022-12-08T06:47:26.619Z,43.17
2022-12-08T06:49:56.629Z,39.42
2022-12-08T06:52:25.226Z,40.55
2022-12-08T06:54:53.004Z,36.70
2022-12-08T06:57:24.435Z,33.83
2022-12-08T06:59:55.030Z,37.33
2022-12-08T07:02:25.892Z,43.80
2022-12-08T07:04:57.534Z,37.22
2022-12-08T07:07:30.609Z,32.60
2022-12-08T07:10:05.041Z,33.03
2022-12-08T07:12:38.190Z,33.38
2022-12-08T07:15:06.981Z,30.00
2022-12-08T07:17:40.246Z,28.45
2022-12-08T07:20:13.127Z,28.33
2022-12-08T07:22:43.870Z,28.00
2022-12-08T07:25:15.712Z,26.67
2022-12-08T07:27:47.788Z,31.38
2022-12-08T07:30:21.152Z,34.97
2022-12-08T07:32:52.722Z,38.60
2022-12-08T07:35:23.632Z,32.63
2022-12-08T07:37:50.665Z,35.05
2022-12-08T07:40:23.034Z,30.38
2022-12-08T07:42:53.666Z,34.65
2022-12-08T07:45:31.243Z,33.03
2022-12-08T07:48:05.420Z,33.10
2022-12-08T07:50:39.031Z,31.38
2022-12-08T07:53:11.657Z,33.40
2022-12-08T07:55:44.193Z,35.20
2022-12-08T07:58:12.770Z,33.00
2022-12-08T08:00:47.630Z,32.47
2022-12-08T08:03:19.351Z,37.38
2022-12-08T08:05:54.980Z,35.70
2022-12-08T08:08:25.529Z,37.45
2022-12-08T08:10:57.027Z,37.40
2022-12-08T08:13:29.374Z,37.15
2022-12-08T08:16:13.315Z,51.70
2022-12-08T08:18:44.791Z,38.72
2022-12-08T08:24:02.104Z,37.63
2022-12-08T08:26:31.812Z,28.60
2022-12-08T08:29:02.836Z,64.55
2022-12-08T08:31:31.722Z,30.67
2022-12-08T08:34:00.872Z,21.67
2022-12-08T08:36:31.964Z,22.83
2022-12-08T08:39:00.582Z,23.40
2022-12-08T08:41:31.857Z,19.30
2022-12-08T08:44:02.628Z,18.60
2022-12-08T08:46:33.054Z,13.77
2022-12-08T08:49:01.228Z,21.58
2022-12-08T08:51:29.646Z,23.58
2022-12-08T08:53:59.097Z,25.58
2022-12-08T08:56:30.091Z,32.38
2022-12-08T08:59:02.195Z,27.38
2022-12-08T09:01:30.833Z,23.50
2022-12-08T09:04:01.763Z,26.15
2022-12-08T09:06:31.961Z,22.20
2022-12-08T09:08:59.462Z,23.73
2022-12-08T09:11:28.976Z,18.02
2022-12-08T09:14:00.927Z,21.17
2022-12-08T09:16:33.353Z,25.42
2022-12-08T09:19:08.963Z,23.73
2022-12-08T09:21:37.654Z,19.42
2022-12-08T09:24:16.032Z,22.50
2022-12-08T09:26:45.893Z,19.42
2022-12-08T09:29:18.093Z,16.25
2022-12-08T09:31:56.432Z,23.02
2022-12-08T09:34:27.121Z,18.30
2022-12-08T09:37:04.023Z,16.95
2022-12-08T09:39:31.534Z,21.00
2022-12-08T09:42:14.209Z,20.95
2022-12-08T09:44:55.279Z,28.25
2022-12-08T09:47:39.279Z,22.27
2022-12-08T09:50:48.746Z,23.52
2022-12-08T09:53:53.364Z,25.75
2022-12-08T09:56:34.499Z,36.57
2022-12-08T09:59:31.272Z,32.47
2022-12-08T10:02:00.835Z,22.02
2022-12-08T10:04:37.997Z,26.25
2022-12-08T10:07:45.797Z,34.08
2022-12-08T10:10:28.261Z,46.60
2022-12-08T10:13:19.093Z,39.38
2022-12-08T10:16:06.301Z,36.65
2022-12-08T10:18:40.497Z,50.88
2022-12-08T10:21:21.754Z,33.55
2022-12-08T10:23:55.504Z,35.35
2022-12-08T10:26:27.267Z,29.93
2022-12-08T10:29:01.586Z,32.55
2022-12-08T10:31:31.455Z,33.00
2022-12-08T10:34:10.809Z,30.58
2022-12-08T10:37:01.444Z,27.55
2022-12-08T10:39:47.832Z,31.60
2022-12-08T10:42:21.039Z,30.75
2022-12-08T10:45:35.773Z,31.33
2022-12-08T10:48:23.173Z,31.55
2022-12-08T10:50:59.025Z,38.25
2022-12-08T10:53:35.672Z,41.13
2022-12-08T10:56:07.022Z,36.22
2022-12-08T10:58:46.526Z,40.70
2022-12-08T11:01:32.834Z,38.53
2022-12-08T11:04:07.643Z,34.33
2022-12-08T11:06:39.562Z,41.03
2022-12-08T11:09:51.551Z,40.05
2022-12-08T11:12:29.366Z,63.72
2022-12-08T11:15:22.661Z,56.72
2022-12-08T11:18:35.965Z,49.57
2022-12-08T11:21:22.006Z,48.20
2022-12-08T11:23:53.594Z,47.58
2022-12-08T11:26:34.794Z,44.47
2022-12-08T11:29:02.532Z,45.70
2022-12-08T11:31:43.691Z,48.13
2022-12-08T11:34:29.480Z,50.13
2022-12-08T11:36:57.360Z,45.88
2022-12-08T11:39:38.698Z,53.70
2022-12-08T11:42:16.324Z,58.35
2022-12-08T11:45:06.397Z,55.15
2022-12-08T11:48:00.441Z,69.80
2022-12-08T11:50:53.991Z,80.22
2022-12-08T11:53:49.961Z,69.90
2022-12-08T11:56:32.345Z,74.15
2022-12-08T11:59:28.250Z,67.20
2022-12-08T12:02:04.442Z,64.32
2022-12-08T12:04:58.420Z,59.13
2022-12-08T12:07:55.719Z,52.92
2022-12-08T12:11:12.733Z,48.42
2022-12-08T12:14:00.344Z,43.13
2022-12-08T12:16:55.697Z,61.05
2022-12-08T12:19:25.663Z,78.45
2022-12-08T12:21:57.999Z,79.65
2022-12-08T12:24:35.941Z,81.93
2022-12-08T12:27:33.569Z,84.38
2022-12-08T12:30:11.003Z,81.43
2022-12-08T12:33:03.389Z,84.45
2022-12-08T12:35:51.912Z,83.65
2022-12-08T12:39:16.792Z,88.30
2022-12-08T12:42:03.528Z,87.93
2022-12-08T12:44:41.242Z,84.55
2022-12-08T12:47:18.551Z,101.60
2022-12-08T12:49:56.917Z,99.95
2022-12-08T12:52:38.903Z,98.20
2022-12-08T12:55:16.100Z,99.85
2022-12-08T12:57:58.561Z,107.60
2022-12-08T13:00:29.705Z,98.57
2022-12-08T13:03:01.827Z,91.57
2022-12-08T13:05:38.403Z,101.72
2022-12-08T13:08:21.764Z,93.82
2022-12-08T13:11:12.318Z,101.25
2022-12-08T13:14:04.927Z,96.10
2022-12-08T13:16:38.904Z,97.88
2022-12-08T13:19:19.035Z,96.45
2022-12-08T13:21:48.027Z,94.32
2022-12-08T13:24:33.437Z,92.15
2022-12-08T13:27:14.559Z,89.75
2022-12-08T13:29:47.474Z,93.90
2022-12-08T13:32:39.024Z,101.53
2022-12-08T13:35:20.790Z,97.85
2022-12-08T13:37:55.406Z,92.47
2022-12-08T13:40:32.901Z,91.68
2022-12-08T13:43:52.458Z,91.95
2022-12-08T13:59:34.104Z,116.65
2022-12-08T14:02:27.416Z,109.15
2022-12-08T14:07:55.051Z,103.15
2022-12-08T14:10:36.414Z,94.20
2022-12-08T14:13:15.259Z,95.88
2022-12-08T14:15:51.192Z,111.32
2022-12-08T14:18:30.620Z,99.22
2022-12-08T14:21:20.697Z,97.90
2022-12-08T14:23:56.387Z,96.43
2022-12-08T14:26:24.147Z,93.28
2022-12-08T14:28:55.313Z,91.80
2022-12-08T14:31:25.339Z,87.88
2022-12-08T14:36:40.712Z,86.28
2022-12-08T14:39:13.844Z,92.35
2022-12-08T14:41:58.665Z,89.28
2022-12-08T14:44:40.773Z,83.63
2022-12-08T14:47:30.758Z,92.72
2022-12-08T14:50:03.225Z,91.80
2022-12-08T14:52:38.214Z,89.43
2022-12-08T14:55:11.728Z,87.10
2022-12-08T14:57:43.124Z,89.97
2022-12-08T15:00:24.998Z,91.28
2022-12-08T15:02:56.782Z,88.10
2022-12-08T15:05:33.412Z,88.65
2022-12-08T15:08:06.266Z,90.53
2022-12-08T15:10:40.462Z,80.40
2022-12-08T15:13:16.198Z,82.22
2022-12-08T15:15:58.463Z,77.00
2022-12-08T15:18:41.675Z,71.43
2022-12-08T15:21:16.263Z,77.30
2022-12-08T15:23:59.784Z,72.05
2022-12-08T15:26:33.748Z,79.05
2022-12-08T15:29:29.470Z,54.33
2022-12-08T15:32:03.969Z,78.03
2022-12-08T15:34:32.014Z,80.20
2022-12-08T15:37:01.122Z,76.10
2022-12-08T15:39:37.622Z,75.70
2022-12-08T15:42:17.247Z,72.05
2022-12-08T15:44:44.793Z,65.88
2022-12-08T15:50:17.647Z,71.82
2022-12-08T15:52:46.113Z,67.15
2022-12-08T15:55:18.723Z,72.20
2022-12-08T16:00:54.210Z,50.67
2022-12-08T16:09:41.953Z,56.72
2022-12-08T16:13:48.090Z,65.65
2022-12-08T16:15:51.771Z,68.85
2022-12-08T16:18:43.338Z,65.35
2022-12-08T16:21:31.557Z,81.82
2022-12-08T16:24:09.085Z,81.55
2022-12-08T16:29:28.588Z,82.32
2022-12-08T16:31:58.863Z,76.75
2022-12-08T16:34:29.564Z,69.90
2022-12-08T16:36:57.412Z,68.25
2022-12-08T16:39:27.192Z,72.10
2022-12-08T16:42:17.484Z,66.38
2022-12-08T16:44:49.599Z,71.43
2022-12-08T16:47:19.026Z,68.88
2022-12-08T16:49:52.787Z,67.07
2022-12-08T16:52:23.510Z,72.47
2022-12-08T16:54:50.666Z,72.93
2022-12-08T16:57:19.300Z,87.60
2022-12-08T16:59:47.492Z,83.15
2022-12-08T17:02:16.644Z,84.53
2022-12-08T17:04:46.195Z,77.35
2022-12-08T17:07:17.156Z,83.43
2022-12-08T17:09:45.171Z,83.43
2022-12-08T17:12:16.891Z,86.90
2022-12-08T17:17:22.614Z,83.55
2022-12-08T17:19:57.366Z,68.60
2022-12-08T17:22:30.790Z,89.22
2022-12-08T17:25:02.005Z,81.32
2022-12-08T17:27:31.326Z,79.10
2022-12-08T17:30:01.501Z,90.88
2022-12-08T17:32:31.027Z,86.88
2022-12-08T17:34:59.200Z,94.45
2022-12-08T17:37:27.202Z,102.95
2022-12-08T17:42:38.602Z,92.47
2022-12-08T17:45:16.030Z,102.88
2022-12-08T17:47:43.109Z,93.05
2022-12-08T17:50:10.893Z,96.45
2022-12-08T17:52:40.254Z,100.35
2022-12-08T17:55:12.580Z,113.32
2022-12-08T17:57:42.375Z,102.53
2022-12-08T18:00:16.094Z,103.05
2022-12-08T18:02:47.352Z,117.13
2022-12-08T18:05:19.721Z,99.75
2022-12-08T18:07:49.769Z,108.07
2022-12-08T18:10:22.134Z,105.75
2022-12-08T18:12:50.521Z,108.90
2022-12-08T18:15:19.616Z,102.30
2022-12-08T18:17:47.984Z,80.13
2022-12-08T18:20:21.525Z,107.25
2022-12-08T18:22:51.667Z,80.85
2022-12-08T18:25:20.510Z,98.32
2022-12-08T18:27:52.143Z,81.30
2022-12-08T18:30:21.507Z,84.03
2022-12-08T18:32:57.309Z,82.10
2022-12-08T18:35:30.888Z,62.50
2022-12-08T18:38:02.626Z,76.25
2022-12-08T18:40:34.407Z,76.10
2022-12-08T18:43:06.188Z,71.03
2022-12-08T18:45:41.586Z,74.18
2022-12-08T18:48:10.322Z,69.38
2022-12-08T18:50:45.038Z,85.50
2022-12-08T18:53:15.826Z,97.32
2022-12-08T18:55:55.089Z,100.85
2022-12-08T18:58:25.526Z,117.05
2022-12-08T19:00:55.726Z,82.22
2022-12-08T19:03:26.487Z,89.60
2022-12-08T19:06:09.877Z,88.55
2022-12-08T19:08:43.961Z,73.07
2022-12-08T19:11:23.161Z,68.00
2022-12-08T19:13:51.653Z,82.43
2022-12-08T19:16:23.835Z,76.07
2022-12-08T19:18:58.574Z,76.82
2022-12-08T19:21:29.756Z,69.40
2022-12-08T19:24:00.676Z,68.03
2022-12-08T19:26:35.523Z,70.68
2022-12-08T19:29:05.443Z,73.63
2022-12-08T19:31:35.251Z,74.75
2022-12-08T19:34:05.379Z,74.05
2022-12-08T19:36:36.014Z,65.22
2022-12-08T19:39:27.011Z,72.25
2022-12-08T19:42:15.501Z,75.35
2022-12-08T19:44:56.037Z,74.00
2022-12-08T19:47:27.600Z,70.88
2022-12-08T19:50:16.683Z,68.22
2022-12-08T19:52:46.022Z,64.45
2022-12-08T19:55:16.767Z,78.15
2022-12-08T19:57:47.481Z,70.18
2022-12-08T20:00:22.305Z,63.38
2022-12-08T20:03:11.522Z,73.32
2022-12-08T20:05:44.436Z,64.25
2022-12-08T20:08:12.372Z,58.90
2022-12-08T20:10:47.584Z,79.00
2022-12-08T20:13:38.845Z,59.88
2022-12-08T20:16:12.418Z,73.03
2022-12-08T20:18:41.218Z,81.95
2022-12-08T20:21:11.549Z,82.55
2022-12-08T20:23:43.564Z,79.18
2022-12-08T20:26:15.498Z,85.78
2022-12-08T20:28:47.523Z,82.03
2022-12-08T20:31:33.584Z,74.60
2022-12-08T20:34:06.891Z,76.22
2022-12-08T20:36:38.168Z,87.13
2022-12-08T20:39:14.127Z,79.78
2022-12-08T20:41:44.943Z,83.93
2022-12-08T20:44:26.875Z,88.15
2022-12-08T20:46:56.559Z,81.32
2022-12-08T20:49:34.715Z,75.03
2022-12-08T20:52:05.588Z,71.50
2022-12-08T20:54:35.723Z,80.88
2022-12-08T20:57:06.637Z,84.78
2022-12-08T20:59:36.304Z,83.30
2022-12-08T21:02:11.301Z,87.40
2022-12-08T21:04:42.304Z,88.93
2022-12-08T21:07:14.145Z,77.40
2022-12-08T21:09:43.638Z,80.50
2022-12-08T21:12:23.411Z,81.47
2022-12-08T21:14:58.730Z,93.65
2022-12-08T21:17:30.393Z,88.07
2022-12-08T21:20:01.886Z,90.43
2022-12-08T21:22:31.314Z,88.70
2022-12-08T21:25:01.955Z,92.10
2022-12-08T21:27:33.149Z,102.07
2022-12-08T21:30:01.853Z,95.38
2022-12-08T21:32:32.817Z,95.53
2022-12-08T21:35:03.354Z,100.22
2022-12-08T21:37:40.444Z,101.35
2022-12-08T21:40:12.782Z,109.20
2022-12-08T21:42:55.757Z,100.63
2022-12-08T21:45:25.965Z,100.07
2022-12-08T21:47:57.809Z,103.13
2022-12-08T21:50:29.685Z,110.13
2022-12-08T21:53:00.515Z,109.28
2022-12-08T21:55:33.358Z,108.53
2022-12-08T21:58:06.596Z,115.70
2022-12-08T22:00:41.377Z,115.63
2022-12-08T22:03:17.276Z,114.68
2022-12-08T22:05:48.714Z,108.53
2022-12-08T22:08:16.545Z,109.32
2022-12-08T22:10:52.198Z,108.45
2022-12-08T22:13:23.936Z,124.57
2022-12-08T22:16:02.686Z,110.03
2022-12-08T22:18:39.729Z,114.72
2022-12-08T22:21:16.742Z,113.18
2022-12-08T22:23:49.352Z,104.50
2022-12-08T22:26:20.047Z,107.50
2022-12-08T22:28:50.884Z,102.47
2022-12-08T22:31:24.178Z,111.55
2022-12-08T22:33:53.677Z,106.50
2022-12-08T22:36:26.940Z,101.43
2022-12-08T22:38:58.577Z,99.97
2022-12-08T22:41:33.945Z,92.93
2022-12-08T22:44:07.260Z,95.55
2022-12-08T22:46:38.965Z,102.75
2022-12-08T22:49:10.274Z,106.78
2022-12-08T22:51:41.236Z,96.47
2022-12-08T22:54:14.177Z,92.32
2022-12-08T22:56:46.903Z,89.40
2022-12-08T22:59:15.578Z,80.60
2022-12-08T23:01:46.298Z,86.10
2022-12-08T23:04:18.424Z,86.00
2022-12-08T23:06:48.672Z,82.97
2022-12-08T23:09:33.795Z,89.30
2022-12-08T23:12:02.334Z,92.32
2022-12-08T23:14:37.601Z,88.43
2022-12-08T23:17:08.178Z,90.40
2022-12-08T23:19:42.970Z,88.05
2022-12-08T23:22:11.973Z,89.00
2022-12-08T23:24:42.379Z,87.05
2022-12-08T23:27:13.830Z,92.85
2022-12-08T23:29:44.309Z,85.53
2022-12-08T23:32:15.045Z,85.50
2022-12-08T23:34:47.650Z,82.43
2022-12-08T23:37:21.047Z,82.30
2022-12-08T23:39:51.247Z,97.28
2022-12-08T23:42:22.127Z,98.13
2022-12-08T23:44:49.429Z,96.72
2022-12-08T23:47:20.325Z,85.85
2022-12-08T23:49:51.673Z,92.22
2022-12-08T23:52:22.581Z,96.40
2022-12-08T23:57:40.128Z,92.80
